Time;durP1;ratioP1;P1;durP2;ratioP2;P2;SDS_P1;SDS_P2;PMS_P1;PMS_P2;Temp;Humidity;BMP_temperature;BMP_pressure;BME280_temperature;BME280_humidity;BME280_pressure;Samples;Min_cycle;Max_cycle;Signal;HPM_P1;HPM_P2
2022/09/10 00:00:58;;;;;;;0.90;0.43;;;16.80;72.40;;;;;;5017673;28;20034;-62
2022/09/10 00:03:23;;;;;;;0.77;0.30;;;16.80;72.50;;;;;;5019485;28;20048;-62
2022/09/10 00:05:49;;;;;;;0.40;0.20;;;16.80;72.50;;;;;;5015471;28;20552;-62
2022/09/10 00:08:17;;;;;;;0.77;0.40;;;16.80;72.50;;;;;;5018384;28;20034;-62
2022/09/10 00:10:48;;;;;;;1.25;0.30;;;16.80;72.60;;;;;;5016751;28;20420;-62
2022/09/10 00:13:17;;;;;;;1.27;0.75;;;16.70;72.50;;;;;;5014285;28;20060;-63
2022/09/10 00:16:03;;;;;;;3.40;0.40;;;16.70;72.60;;;;;;5018032;28;20529;-61
2022/09/10 00:18:30;;;;;;;0.90;0.35;;;16.70;73.10;;;;;;5017303;28;20038;-63
2022/09/10 00:20:57;;;;;;;0.85;0.30;;;16.60;72.50;;;;;;5018777;28;20069;-62
2022/09/10 00:23:28;;;;;;;1.45;0.30;;;16.60;72.60;;;;;;5016623;28;20037;-62
2022/09/10 00:25:56;;;;;;;1.40;0.40;;;16.60;72.80;;;;;;5016932;28;20490;-63
2022/09/10 00:28:23;;;;;;;1.08;0.30;;;16.60;72.60;;;;;;5017900;28;20543;-62
2022/09/10 00:30:50;;;;;;;0.30;0.30;;;16.60;72.60;;;;;;5035422;28;20064;-61
2022/09/10 00:33:18;;;;;;;0.82;0.50;;;16.60;72.60;;;;;;5037478;28;20092;-62
2022/09/10 00:35:44;;;;;;;0.60;0.40;;;16.60;72.80;;;;;;5032672;28;20114;-63
2022/09/10 00:38:11;;;;;;;0.65;0.40;;;16.50;72.80;;;;;;5037915;28;20418;-63
2022/09/10 00:40:38;;;;;;;0.57;0.22;;;16.50;72.80;;;;;;5036351;28;20180;-61
2022/09/10 00:43:13;;;;;;;0.70;0.47;;;16.50;72.80;;;;;;5036607;28;20631;-61
2022/09/10 00:45:40;;;;;;;1.75;0.30;;;16.40;73.10;;;;;;5034642;28;20124;-62
2022/09/10 00:48:30;;;;;;;0.85;0.45;;;16.40;72.90;;;;;;5036132;28;20037;-62
2022/09/10 00:51:00;;;;;;;0.85;0.40;;;16.40;73.00;;;;;;5016424;28;20044;-62
2022/09/10 00:53:27;;;;;;;0.65;0.40;;;16.40;72.90;;;;;;5018306;28;20049;-62
2022/09/10 00:55:57;;;;;;;0.98;0.30;;;16.40;73.00;;;;;;5017240;28;20033;-62
2022/09/10 00:58:26;;;;;;;0.93;0.43;;;16.30;73.20;;;;;;5017247;28;20034;-61
2022/09/10 01:01:00;;;;;;;1.73;0.30;;;16.30;73.30;;;;;;5018784;28;20045;-62
2022/09/10 01:03:28;;;;;;;2.63;0.30;;;16.30;73.50;;;;;;5019989;28;20505;-62
2022/09/10 01:05:55;;;;;;;1.50;0.38;;;16.30;73.30;;;;;;5017922;28;20663;-62
2022/09/10 01:08:21;;;;;;;1.83;0.40;;;16.30;73.50;;;;;;5016368;28;20042;-61
2022/09/10 01:10:50;;;;;;;0.73;0.35;;;16.30;73.40;;;;;;5017632;28;20536;-61
2022/09/10 01:13:24;;;;;;;0.20;0.20;;;16.20;73.60;;;;;;5016571;28;20045;-62
2022/09/10 01:16:17;;;;;;;0.40;0.28;;;16.20;73.70;;;;;;5015321;28;20126;-62
2022/09/10 01:19:07;;;;;;;0.57;0.40;;;16.30;74.10;;;;;;5016198;28;20046;-62
2022/09/10 01:21:43;;;;;;;1.05;0.30;;;16.30;73.70;;;;;;5016746;28;20037;-61
2022/09/10 01:24:21;;;;;;;1.10;0.30;;;16.30;73.80;;;;;;5016705;28;20088;-62
2022/09/10 01:27:23;;;;;;;0.68;0.25;;;16.20;74.10;;;;;;5016355;28;20418;-62
2022/09/10 01:30:13;;;;;;;0.77;0.28;;;16.20;74.20;;;;;;5016363;28;20038;-62
2022/09/10 01:32:53;;;;;;;0.30;0.20;;;16.20;74.20;;;;;;5015469;28;20034;-63
2022/09/10 01:35:43;;;;;;;2.15;0.30;;;16.20;74.00;;;;;;5016444;28;20034;-62
2022/09/10 01:38:14;;;;;;;1.50;0.30;;;16.30;74.00;;;;;;5008355;28;20030;-61
2022/09/10 01:40:41;;;;;;;2.10;0.22;;;16.30;73.90;;;;;;5008208;28;20038;-62
2022/09/10 01:43:09;;;;;;;1.25;0.30;;;16.30;73.70;;;;;;5009072;28;20033;-63
2022/09/10 01:46:06;;;;;;;0.60;0.30;;;16.30;73.80;;;;;;5009600;28;20033;-62
2022/09/10 01:48:50;;;;;;;0.90;0.20;;;16.30;74.20;;;;;;5010779;28;20116;-63
2022/09/10 01:51:30;;;;;;;0.32;0.20;;;16.30;74.20;;;;;;5006092;28;20560;-62
2022/09/10 01:54:39;;;;;;;0.40;0.28;;;16.30;73.90;;;;;;5010121;28;20140;-63
2022/09/10 01:57:22;;;;;;;2.58;0.22;;;16.30;74.00;;;;;;5008598;28;20033;-64
2022/09/10 01:59:55;;;;;;;1.00;0.20;;;16.30;73.70;;;;;;5006356;28;20564;-63
2022/09/10 02:02:27;;;;;;;0.70;0.20;;;16.20;73.90;;;;;;5006791;28;20189;-62
2022/09/10 02:04:54;;;;;;;0.85;0.20;;;16.20;73.70;;;;;;5010773;28;20266;-62
2022/09/10 02:07:23;;;;;;;1.08;0.30;;;16.20;73.80;;;;;;5004823;28;20412;-63
2022/09/10 02:09:49;;;;;;;0.65;0.20;;;16.20;73.90;;;;;;5010120;28;20381;-63
2022/09/10 02:12:20;;;;;;;0.93;0.30;;;16.10;73.90;;;;;;5002016;28;20036;-63
2022/09/10 02:14:53;;;;;;;0.20;0.20;;;16.10;74.10;;;;;;5010190;28;20156;-63
2022/09/10 02:17:20;;;;;;;1.13;0.30;;;16.20;74.20;;;;;;5007062;28;20126;-62
2022/09/10 02:19:50;;;;;;;0.73;0.20;;;16.10;74.00;;;;;;5007819;28;20052;-62
2022/09/10 02:22:17;;;;;;;0.65;0.30;;;16.20;74.00;;;;;;5008470;28;20156;-63
2022/09/10 02:24:45;;;;;;;0.80;0.40;;;16.20;74.00;;;;;;5008524;28;20096;-62
2022/09/10 02:27:11;;;;;;;1.25;0.40;;;16.20;73.90;;;;;;5006789;28;20058;-63
2022/09/10 02:29:38;;;;;;;1.00;0.35;;;16.20;73.90;;;;;;5008620;28;20057;-62
2022/09/10 02:32:05;;;;;;;0.90;0.30;;;16.20;73.90;;;;;;5008316;28;20177;-62
2022/09/10 02:34:31;;;;;;;3.63;0.30;;;16.20;73.90;;;;;;5009968;28;20140;-61
2022/09/10 02:36:57;;;;;;;0.25;0.20;;;16.20;73.90;;;;;;5009118;28;20061;-62
2022/09/10 02:39:23;;;;;;;0.30;0.20;;;16.20;74.70;;;;;;5006454;28;20445;-62
2022/09/10 02:41:49;;;;;;;1.33;0.30;;;16.20;73.90;;;;;;5005903;28;20475;-61
2022/09/10 02:44:15;;;;;;;0.60;0.20;;;16.20;73.90;;;;;;5008816;28;20125;-62
2022/09/10 02:46:40;;;;;;;0.20;0.20;;;16.20;73.90;;;;;;5007494;28;20088;-62
2022/09/10 02:49:06;;;;;;;0.22;0.20;;;16.20;74.00;;;;;;5006899;28;20536;-61
2022/09/10 02:51:32;;;;;;;1.73;0.20;;;16.20;73.90;;;;;;5008505;28;20038;-61
2022/09/10 02:53:57;;;;;;;0.20;0.20;;;16.20;73.90;;;;;;5009139;28;20484;-62
2022/09/10 02:56:23;;;;;;;1.15;0.20;;;16.20;73.90;;;;;;5010096;28;20076;-63
2022/09/10 02:58:49;;;;;;;0.40;0.35;;;16.20;74.00;;;;;;5007583;28;20037;-62
2022/09/10 03:01:18;;;;;;;0.77;0.50;;;16.10;74.00;;;;;;5009461;28;20037;-62
2022/09/10 03:03:53;;;;;;;0.85;0.30;;;16.20;74.00;;;;;;5008442;28;20514;-63
2022/09/10 03:06:20;;;;;;;0.45;0.20;;;16.20;74.10;;;;;;5008782;28;20508;-61
2022/09/10 03:08:49;;;;;;;0.60;0.30;;;16.10;73.90;;;;;;5009260;28;20044;-62
2022/09/10 03:11:15;;;;;;;0.82;0.20;;;16.20;74.10;;;;;;5008126;28;20042;-63
2022/09/10 03:13:42;;;;;;;1.15;0.30;;;16.10;74.00;;;;;;5011804;28;20038;-62
2022/09/10 03:16:09;;;;;;;0.90;0.30;;;16.20;74.10;;;;;;5013449;28;20037;-63
2022/09/10 03:18:34;;;;;;;1.80;0.20;;;16.10;74.00;;;;;;5010344;28;20065;-63
2022/09/10 03:21:29;;;;;;;0.82;0.20;;;16.20;74.10;;;;;;5013678;28;20073;-62
2022/09/10 03:23:55;;;;;;;0.60;0.27;;;16.10;74.50;;;;;;5015317;28;20033;-62
2022/09/10 03:26:24;;;;;;;1.55;0.20;;;16.20;74.20;;;;;;5009708;28;20038;-63
2022/09/10 03:28:49;;;;;;;0.22;0.10;;;16.20;74.50;;;;;;5008235;28;20182;-62
2022/09/10 03:31:16;;;;;;;0.68;0.20;;;16.20;74.50;;;;;;5008980;28;20128;-62
2022/09/10 03:33:42;;;;;;;0.73;0.20;;;16.20;74.50;;;;;;5008918;28;20061;-62
2022/09/10 03:36:12;;;;;;;0.30;0.30;;;16.20;74.60;;;;;;5006266;28;20145;-63
2022/09/10 03:38:37;;;;;;;0.98;0.30;;;16.20;74.90;;;;;;5008737;28;20117;-60
2022/09/10 03:41:03;;;;;;;0.30;0.22;;;16.20;75.10;;;;;;5007848;28;20038;-62
2022/09/10 03:43:29;;;;;;;2.65;0.30;;;16.10;75.10;;;;;;5007463;28;20560;-62
2022/09/10 03:45:55;;;;;;;0.40;0.20;;;16.20;75.10;;;;;;5008273;28;20053;-62
2022/09/10 03:48:21;;;;;;;0.98;0.22;;;16.20;75.00;;;;;;5007945;28;20129;-62
2022/09/10 03:50:49;;;;;;;0.52;0.10;;;16.20;74.90;;;;;;5008090;28;20052;-61
2022/09/10 03:53:16;;;;;;;0.55;0.30;;;16.30;75.00;;;;;;5009232;28;20100;-61
2022/09/10 03:55:43;;;;;;;0.75;0.40;;;16.30;74.90;;;;;;5010666;28;20493;-61
2022/09/10 03:58:09;;;;;;;0.68;0.25;;;16.30;74.90;;;;;;5009042;28;20466;-63
2022/09/10 04:00:34;;;;;;;0.30;0.17;;;16.30;74.90;;;;;;5009229;28;20036;-63
2022/09/10 04:03:01;;;;;;;0.73;0.30;;;16.30;74.70;;;;;;5011799;28;20415;-61
2022/09/10 04:05:27;;;;;;;1.50;0.20;;;16.30;74.80;;;;;;5011728;28;20038;-61
2022/09/10 04:07:55;;;;;;;0.60;0.30;;;16.40;74.80;;;;;;5011727;28;20129;-62
2022/09/10 04:10:21;;;;;;;37.53;26.65;;;16.40;74.80;;;;;;5012551;28;20621;-62
2022/09/10 04:12:50;;;;;;;8.25;6.82;;;16.40;74.70;;;;;;5007303;28;20049;-61
2022/09/10 04:15:16;;;;;;;4.00;2.47;;;16.40;74.70;;;;;;5010900;28;20479;-63
2022/09/10 04:17:41;;;;;;;1.42;1.00;;;16.40;74.60;;;;;;5011875;28;20497;-61
2022/09/10 04:20:08;;;;;;;1.30;1.20;;;16.40;74.70;;;;;;5011123;28;20045;-62
2022/09/10 04:22:33;;;;;;;0.80;0.60;;;16.40;74.90;;;;;;5010704;28;20036;-62
2022/09/10 04:24:59;;;;;;;0.50;0.50;;;16.50;74.90;;;;;;5008948;28;20042;-61
2022/09/10 04:27:25;;;;;;;0.43;0.28;;;16.50;74.90;;;;;;5010100;28;20030;-61
2022/09/10 04:29:51;;;;;;;0.55;0.30;;;16.50;75.10;;;;;;5005879;28;20065;-60
2022/09/10 04:32:17;;;;;;;0.50;0.30;;;16.50;75.30;;;;;;5011694;28;20574;-62
2022/09/10 04:34:43;;;;;;;2.30;0.40;;;16.50;75.50;;;;;;5009517;28;20061;-61
2022/09/10 04:37:09;;;;;;;2.03;0.70;;;16.50;75.50;;;;;;5010972;28;20391;-62
2022/09/10 04:39:34;;;;;;;2.15;0.38;;;16.50;75.40;;;;;;5011761;28;20061;-62
2022/09/10 04:42:00;;;;;;;0.32;0.30;;;16.50;75.50;;;;;;5007234;28;20068;-60
2022/09/10 04:44:26;;;;;;;0.30;0.20;;;16.50;75.60;;;;;;5009588;28;20541;-62
2022/09/10 04:46:52;;;;;;;0.82;0.20;;;16.50;75.60;;;;;;5009334;28;20033;-61
2022/09/10 04:49:17;;;;;;;0.50;0.50;;;16.50;75.60;;;;;;5007371;28;20419;-62
2022/09/10 04:51:43;;;;;;;1.48;0.90;;;16.50;75.60;;;;;;5008477;28;20028;-63
2022/09/10 04:54:13;;;;;;;2.38;0.57;;;16.50;75.60;;;;;;5013071;28;20041;-62
2022/09/10 04:56:38;;;;;;;1.35;0.95;;;16.50;75.80;;;;;;5007086;28;20042;-62
2022/09/10 04:59:04;;;;;;;3.55;3.22;;;16.40;75.70;;;;;;5008496;28;20052;-60
2022/09/10 05:01:30;;;;;;;1.02;0.70;;;16.40;75.90;;;;;;5007193;28;20542;-62
2022/09/10 05:03:55;;;;;;;0.90;0.70;;;16.40;76.10;;;;;;5006406;28;20130;-62
2022/09/10 05:06:22;;;;;;;1.50;1.40;;;16.40;76.30;;;;;;5007819;28;20061;-61
2022/09/10 05:08:48;;;;;;;0.70;0.40;;;16.40;76.50;;;;;;5009486;28;20120;-62
2022/09/10 05:11:13;;;;;;;0.55;0.40;;;16.30;76.70;;;;;;5007456;28;20561;-62
2022/09/10 05:13:39;;;;;;;1.58;0.40;;;16.30;76.80;;;;;;5012120;28;20582;-61
2022/09/10 05:16:05;;;;;;;0.43;0.40;;;16.30;76.90;;;;;;5006724;28;20066;-61
2022/09/10 05:18:30;;;;;;;0.47;0.40;;;16.30;77.10;;;;;;5009386;28;20671;-62
2022/09/10 05:20:56;;;;;;;1.67;0.80;;;16.30;77.30;;;;;;5006404;28;20037;-61
2022/09/10 05:23:21;;;;;;;0.57;0.35;;;16.30;77.50;;;;;;5011056;28;20034;-62
2022/09/10 05:25:47;;;;;;;0.65;0.28;;;16.30;77.50;;;;;;5007653;28;20072;-62
2022/09/10 05:28:14;;;;;;;0.93;0.60;;;16.30;77.60;;;;;;5009617;28;20414;-62
2022/09/10 05:30:40;;;;;;;1.98;1.63;;;16.30;77.90;;;;;;5010935;28;20041;-63
2022/09/10 05:33:06;;;;;;;1.77;1.48;;;16.30;77.90;;;;;;5006623;28;20041;-63
2022/09/10 05:35:32;;;;;;;0.65;0.65;;;16.30;78.10;;;;;;5007890;28;20038;-62
2022/09/10 05:37:59;;;;;;;5.88;5.25;;;16.30;78.20;;;;;;5005713;28;20029;-61
2022/09/10 05:40:25;;;;;;;5.18;3.67;;;16.30;78.50;;;;;;5008696;28;20049;-62
2022/09/10 05:42:52;;;;;;;1.55;1.40;;;16.30;78.60;;;;;;5008745;28;20038;-60
2022/09/10 05:45:19;;;;;;;1.17;0.50;;;16.30;78.70;;;;;;5008938;28;20460;-62
2022/09/10 05:47:45;;;;;;;0.40;0.30;;;16.30;78.80;;;;;;5007671;28;20041;-62
2022/09/10 05:50:11;;;;;;;0.38;0.20;;;16.30;79.00;;;;;;5011027;28;20149;-60
2022/09/10 05:52:36;;;;;;;0.43;0.20;;;16.30;79.00;;;;;;5005903;28;20597;-62
2022/09/10 05:55:03;;;;;;;0.13;0.10;;;16.30;79.10;;;;;;5006687;28;20049;-61
2022/09/10 05:57:30;;;;;;;1.10;0.20;;;16.30;79.30;;;;;;5009676;28;20498;-60
2022/09/10 05:59:55;;;;;;;1.13;0.20;;;16.30;79.40;;;;;;5011429;28;20066;-60
2022/09/10 06:02:21;;;;;;;0.55;0.30;;;16.40;79.50;;;;;;5009773;28;20065;-62
2022/09/10 06:04:47;;;;;;;0.57;0.20;;;16.40;79.50;;;;;;5008104;28;20041;-60
2022/09/10 06:07:12;;;;;;;0.85;0.20;;;16.40;80.40;;;;;;5009325;28;20569;-61
2022/09/10 06:09:38;;;;;;;0.93;0.28;;;16.50;79.80;;;;;;5010787;28;20044;-62
2022/09/10 06:12:05;;;;;;;0.63;0.20;;;16.40;79.60;;;;;;5004598;28;23244;-61
2022/09/10 06:14:31;;;;;;;1.95;0.30;;;16.50;79.70;;;;;;5009769;28;20214;-62
2022/09/10 06:16:57;;;;;;;0.20;0.10;;;16.50;79.80;;;;;;4998012;28;20045;-61
2022/09/10 06:19:22;;;;;;;1.35;0.30;;;16.50;79.80;;;;;;4998237;28;20133;-61
2022/09/10 06:21:51;;;;;;;0.88;0.28;;;16.60;79.70;;;;;;4998707;28;20062;-61
2022/09/10 06:24:18;;;;;;;1.38;0.20;;;16.60;79.90;;;;;;5004585;28;20050;-62
2022/09/10 06:26:50;;;;;;;1.13;0.20;;;16.60;79.70;;;;;;5009545;28;20516;-62
2022/09/10 06:29:18;;;;;;;0.80;0.20;;;16.60;79.60;;;;;;5002365;28;21050;-61
2022/09/10 06:31:45;;;;;;;1.75;0.20;;;16.60;79.60;;;;;;5002883;28;20041;-60
2022/09/10 06:34:11;;;;;;;0.70;0.30;;;16.70;79.60;;;;;;5008122;28;20115;-59
2022/09/10 06:36:37;;;;;;;1.40;0.22;;;16.70;79.50;;;;;;5004238;28;20722;-62
2022/09/10 06:39:03;;;;;;;0.90;0.20;;;16.70;79.50;;;;;;4998799;28;20030;-62
2022/09/10 06:41:29;;;;;;;2.70;0.20;;;16.70;79.60;;;;;;5007878;28;20233;-63
2022/09/10 06:43:56;;;;;;;0.80;0.20;;;16.70;79.60;;;;;;5004044;28;20041;-62
2022/09/10 06:46:21;;;;;;;2.13;0.30;;;16.70;79.80;;;;;;5001086;28;20041;-62
2022/09/10 06:48:47;;;;;;;0.77;0.20;;;16.70;79.80;;;;;;5005109;28;20409;-61
2022/09/10 06:51:14;;;;;;;0.93;0.30;;;16.70;79.90;;;;;;5006943;28;20076;-60
2022/09/10 06:53:41;;;;;;;0.50;0.30;;;16.70;80.00;;;;;;5005785;28;20041;-60
2022/09/10 06:56:10;;;;;;;0.28;0.20;;;16.70;80.20;;;;;;5002430;28;20442;-62
2022/09/10 06:58:37;;;;;;;0.43;0.20;;;16.70;80.50;;;;;;5002212;28;20498;-60
2022/09/10 07:01:10;;;;;;;1.90;0.30;;;16.70;80.30;;;;;;5002845;28;20041;-62
2022/09/10 07:03:36;;;;;;;1.05;0.40;;;16.70;80.60;;;;;;4999085;28;20599;-62
2022/09/10 07:06:07;;;;;;;0.38;0.20;;;16.70;80.50;;;;;;5007042;28;20121;-62
2022/09/10 07:08:33;;;;;;;0.45;0.20;;;16.80;80.80;;;;;;5001071;28;20034;-59
2022/09/10 07:11:10;;;;;;;0.90;0.25;;;16.80;80.90;;;;;;5001734;28;20047;-59
2022/09/10 07:13:36;;;;;;;0.88;0.20;;;16.80;81.10;;;;;;5004715;28;20210;-59
2022/09/10 07:16:02;;;;;;;0.93;0.40;;;16.80;80.60;;;;;;5004771;28;20128;-62
2022/09/10 07:18:29;;;;;;;0.60;0.30;;;16.80;80.60;;;;;;5002496;28;22341;-62
2022/09/10 07:21:06;;;;;;;0.50;0.25;;;16.80;80.50;;;;;;5001723;28;20494;-60
2022/09/10 07:23:31;;;;;;;0.30;0.10;;;16.80;81.00;;;;;;5001114;28;20417;-59
2022/09/10 07:26:03;;;;;;;1.08;0.30;;;16.80;80.60;;;;;;5007220;28;20034;-62
2022/09/10 07:28:30;;;;;;;0.60;0.30;;;16.80;81.50;;;;;;5006203;28;20088;-59
2022/09/10 07:30:56;;;;;;;0.80;0.30;;;16.80;80.40;;;;;;5003458;28;20042;-59
2022/09/10 07:33:22;;;;;;;1.88;0.70;;;16.80;80.50;;;;;;5006511;28;20860;-62
2022/09/10 07:35:48;;;;;;;1.08;0.22;;;16.80;80.50;;;;;;5009806;28;20045;-61
2022/09/10 07:38:15;;;;;;;1.02;0.20;;;16.80;80.60;;;;;;5005423;28;20056;-61
2022/09/10 07:40:42;;;;;;;2.15;0.40;;;16.80;80.60;;;;;;5010298;28;20038;-62
2022/09/10 07:43:08;;;;;;;0.43;0.20;;;16.80;80.50;;;;;;5017087;28;20037;-60
2022/09/10 07:45:33;;;;;;;3.03;0.40;;;16.80;80.60;;;;;;5010858;28;20067;-62
2022/09/10 07:47:59;;;;;;;0.80;0.40;;;16.80;80.80;;;;;;5011570;28;20062;-62
2022/09/10 07:50:25;;;;;;;0.22;0.22;;;16.80;80.80;;;;;;5008727;28;20029;-63
2022/09/10 07:52:51;;;;;;;1.27;0.40;;;16.80;80.80;;;;;;5009471;28;20097;-61
2022/09/10 07:55:17;;;;;;;1.27;0.20;;;16.80;80.80;;;;;;5012091;28;20514;-61
2022/09/10 07:57:44;;;;;;;0.20;0.20;;;16.90;80.80;;;;;;5006186;28;20046;-61
2022/09/10 08:00:13;;;;;;;1.33;0.20;;;16.90;80.90;;;;;;5011418;28;20117;-62
2022/09/10 08:02:43;;;;;;;1.55;0.20;;;16.90;80.90;;;;;;5011635;28;20042;-61
2022/09/10 08:05:10;;;;;;;1.35;0.30;;;16.90;81.00;;;;;;5006736;28;20037;-61
2022/09/10 08:07:40;;;;;;;0.90;0.32;;;16.90;80.80;;;;;;5008776;28;20061;-60
2022/09/10 08:10:08;;;;;;;0.50;0.10;;;16.90;81.90;;;;;;5008251;28;21487;-61
2022/09/10 08:12:35;;;;;;;1.00;0.20;;;17.00;81.00;;;;;;5004177;28;20033;-60
2022/09/10 08:15:00;;;;;;;1.90;0.20;;;17.00;80.90;;;;;;5010235;28;20034;-61
2022/09/10 08:17:28;;;;;;;0.30;0.30;;;17.00;81.00;;;;;;5009596;28;20080;-62
2022/09/10 08:19:54;;;;;;;1.25;0.22;;;17.00;81.00;;;;;;5012483;28;20033;-61
2022/09/10 08:22:19;;;;;;;0.75;0.28;;;17.00;80.70;;;;;;5002722;28;20037;-62
2022/09/10 08:24:46;;;;;;;0.93;0.28;;;17.10;80.80;;;;;;5012261;28;20038;-61
2022/09/10 08:27:12;;;;;;;1.02;0.30;;;17.10;80.70;;;;;;5010136;28;20112;-60
2022/09/10 08:29:38;;;;;;;0.50;0.20;;;17.10;80.70;;;;;;5005138;28;20030;-62
2022/09/10 08:32:04;;;;;;;0.77;0.20;;;17.20;80.80;;;;;;5008989;28;20505;-62
2022/09/10 08:34:29;;;;;;;0.50;0.28;;;17.20;80.80;;;;;;5003075;28;20033;-61
2022/09/10 08:36:55;;;;;;;0.40;0.20;;;17.20;80.80;;;;;;5009526;28;20033;-61
2022/09/10 08:39:21;;;;;;;0.30;0.20;;;17.30;80.70;;;;;;5007660;28;20041;-61
2022/09/10 08:42:14;;;;;;;0.45;0.20;;;17.30;80.80;;;;;;5006403;28;20069;-59
2022/09/10 08:44:48;;;;;;;0.57;0.28;;;17.40;81.30;;;;;;5014466;28;20034;-61
2022/09/10 08:47:59;;;;;;;0.57;0.30;;;17.40;81.30;;;;;;5015166;28;20065;-60
2022/09/10 08:50:38;;;;;;;1.50;0.40;;;17.50;81.70;;;;;;5020528;28;20045;-62
2022/09/10 08:53:11;;;;;;;0.85;0.57;;;17.50;81.20;;;;;;5014661;28;20038;-61
2022/09/10 08:55:40;;;;;;;2.80;0.50;;;17.60;80.50;;;;;;5013952;28;20034;-61
2022/09/10 08:58:24;;;;;;;0.93;0.38;;;17.60;80.30;;;;;;5016051;28;20037;-62
2022/09/10 09:01:00;;;;;;;0.73;0.30;;;17.60;80.80;;;;;;5016031;28;20439;-63
2022/09/10 09:03:31;;;;;;;2.20;0.40;;;17.60;80.60;;;;;;5015085;28;20060;-62
2022/09/10 09:06:00;;;;;;;1.55;0.30;;;17.60;80.50;;;;;;5014536;28;20058;-62
2022/09/10 09:08:35;;;;;;;0.57;0.30;;;17.70;80.30;;;;;;5015672;28;20033;-62
2022/09/10 09:11:09;;;;;;;1.90;0.43;;;17.70;80.20;;;;;;5009966;28;20525;-60
2022/09/10 09:13:59;;;;;;;2.47;0.50;;;17.70;80.30;;;;;;5015460;28;20067;-61
2022/09/10 09:16:34;;;;;;;1.38;0.40;;;17.70;80.30;;;;;;5012919;28;20533;-61
2022/09/10 09:19:04;;;;;;;0.55;0.40;;;17.70;80.10;;;;;;5012241;28;20406;-61
2022/09/10 09:21:55;;;;;;;0.52;0.22;;;17.70;79.70;;;;;;5013791;28;20056;-61
2022/09/10 09:24:26;;;;;;;1.67;0.50;;;17.70;79.60;;;;;;5014773;28;20038;-61
2022/09/10 09:27:00;;;;;;;1.58;0.38;;;17.70;79.30;;;;;;5012455;28;20045;-59
2022/09/10 09:29:39;;;;;;;1.00;0.30;;;17.70;79.60;;;;;;5016452;28;20045;-59
2022/09/10 09:32:05;;;;;;;1.10;0.30;;;17.70;79.60;;;;;;5012923;28;20062;-61
2022/09/10 09:35:12;;;;;;;1.27;0.40;;;17.80;79.30;;;;;;5012783;28;20045;-60
2022/09/10 09:37:40;;;;;;;1.05;0.52;;;17.80;79.30;;;;;;5011333;28;20029;-61
2022/09/10 09:40:26;;;;;;;0.60;0.25;;;17.80;80.00;;;;;;5011449;28;20026;-61
2022/09/10 09:42:57;;;;;;;0.73;0.32;;;17.90;79.20;;;;;;5014149;28;20096;-62
2022/09/10 09:45:33;;;;;;;1.77;0.50;;;17.90;79.00;;;;;;5012662;28;20590;-61
2022/09/10 09:47:59;;;;;;;1.10;0.28;;;17.90;79.20;;;;;;5012513;28;20515;-60
2022/09/10 09:50:24;;;;;;;1.58;0.40;;;17.90;79.30;;;;;;5012441;28;20037;-60
2022/09/10 09:52:57;;;;;;;1.02;0.32;;;18.00;80.30;;;;;;5013926;28;20044;-60
2022/09/10 09:55:45;;;;;;;1.00;0.30;;;18.10;79.80;;;;;;5011250;28;20042;-60
2022/09/10 09:58:33;;;;;;;0.93;0.50;;;18.20;79.10;;;;;;5014643;28;20034;-60
2022/09/10 10:01:08;;;;;;;1.38;0.40;;;18.30;78.60;;;;;;5011194;28;20022;-61
2022/09/10 10:03:53;;;;;;;1.45;0.50;;;18.30;78.30;;;;;;5009888;28;20034;-60
2022/09/10 10:06:46;;;;;;;1.02;0.40;;;18.30;78.00;;;;;;5012896;28;20041;-60
2022/09/10 10:09:25;;;;;;;1.10;0.50;;;18.30;78.20;;;;;;5009081;28;20160;-62
2022/09/10 10:11:58;;;;;;;1.25;0.30;;;18.30;77.70;;;;;;5011411;28;20045;-62
2022/09/10 10:14:29;;;;;;;1.98;0.65;;;18.40;77.80;;;;;;5010719;28;20048;-61
2022/09/10 10:16:55;;;;;;;1.15;0.35;;;18.40;78.00;;;;;;5016149;28;20543;-61
2022/09/10 10:19:36;;;;;;;0.47;0.30;;;18.40;77.90;;;;;;5014943;28;20521;-61
2022/09/10 10:22:13;;;;;;;1.80;0.30;;;18.40;78.70;;;;;;5014293;28;20040;-61
2022/09/10 10:24:50;;;;;;;0.80;0.30;;;18.50;77.60;;;;;;5010326;28;20060;-62
2022/09/10 10:27:22;;;;;;;3.03;0.40;;;18.50;77.80;;;;;;5014707;28;20037;-61
2022/09/10 10:30:10;;;;;;;0.70;0.30;;;18.50;77.40;;;;;;5011934;28;20041;-61
2022/09/10 10:32:43;;;;;;;1.45;0.73;;;18.60;76.70;;;;;;5011252;28;20041;-61
2022/09/10 10:35:15;;;;;;;1.00;0.80;;;18.60;76.30;;;;;;5010041;28;20037;-61
2022/09/10 10:37:43;;;;;;;1.67;0.70;;;18.60;76.60;;;;;;5011734;28;20037;-62
2022/09/10 10:40:25;;;;;;;0.98;0.57;;;18.70;77.00;;;;;;5011793;28;20481;-61
2022/09/10 10:43:33;;;;;;;2.05;0.60;;;18.70;76.60;;;;;;5011795;28;20061;-62
2022/09/10 10:46:04;;;;;;;0.35;0.30;;;18.80;75.90;;;;;;5012614;28;20038;-62
2022/09/10 10:48:47;;;;;;;0.95;0.40;;;18.90;76.20;;;;;;5011207;28;20038;-60
2022/09/10 10:51:43;;;;;;;1.38;0.60;;;18.90;76.20;;;;;;5012217;28;20631;-61
2022/09/10 10:54:39;;;;;;;1.08;0.40;;;19.00;75.80;;;;;;5012022;28;20036;-61
2022/09/10 10:57:26;;;;;;;0.30;0.30;;;19.10;75.20;;;;;;5011797;28;20117;-61
2022/09/10 11:00:06;;;;;;;1.38;0.45;;;19.10;75.60;;;;;;5011434;28;21136;-61
2022/09/10 11:02:53;;;;;;;0.68;0.35;;;19.20;75.10;;;;;;5009045;28;20038;-61
2022/09/10 11:05:44;;;;;;;0.68;0.40;;;19.20;74.60;;;;;;5008641;28;20045;-62
2022/09/10 11:08:39;;;;;;;0.40;0.20;;;19.20;74.10;;;;;;5013706;28;20037;-61
2022/09/10 11:11:23;;;;;;;1.88;0.70;;;19.30;74.10;;;;;;5014665;28;20045;-62
2022/09/10 11:14:01;;;;;;;1.30;0.47;;;19.30;74.00;;;;;;5007502;28;20061;-63
2022/09/10 11:16:34;;;;;;;1.80;0.40;;;19.30;73.30;;;;;;5013024;28;20045;-61
2022/09/10 11:19:15;;;;;;;1.02;0.40;;;19.30;73.80;;;;;;5011553;28;20049;-63
2022/09/10 11:22:02;;;;;;;0.95;0.30;;;19.30;74.30;;;;;;5012983;28;20527;-62
2022/09/10 11:24:33;;;;;;;1.17;0.47;;;19.30;74.50;;;;;;5012942;28;20535;-62
2022/09/10 11:27:12;;;;;;;0.70;0.32;;;19.30;75.00;;;;;;5012658;28;20623;-62
2022/09/10 11:29:56;;;;;;;1.00;0.40;;;19.30;74.70;;;;;;5013042;28;20026;-61
2022/09/10 11:32:42;;;;;;;1.35;0.30;;;19.20;75.20;;;;;;5012375;28;20052;-62
2022/09/10 11:35:32;;;;;;;0.43;0.30;;;19.20;75.50;;;;;;5012096;28;20042;-62
2022/09/10 11:37:57;;;;;;;0.90;0.40;;;19.20;75.10;;;;;;5012809;28;20037;-61
2022/09/10 11:40:56;;;;;;;0.40;0.20;;;19.10;75.30;;;;;;5009766;28;20092;-61
2022/09/10 11:43:36;;;;;;;2.38;0.45;;;19.10;77.00;;;;;;5013297;28;20042;-61
2022/09/10 11:46:06;;;;;;;1.33;0.50;;;19.10;77.10;;;;;;5011876;28;20092;-63
2022/09/10 11:48:40;;;;;;;1.02;0.40;;;19.10;77.00;;;;;;5010389;28;20040;-62
2022/09/10 11:51:16;;;;;;;1.38;0.47;;;19.10;76.50;;;;;;5011920;28;20470;-61
2022/09/10 11:53:43;;;;;;;1.88;0.43;;;19.10;76.20;;;;;;5009286;28;20175;-60
2022/09/10 11:56:36;;;;;;;0.73;0.30;;;19.10;76.00;;;;;;5014791;28;20037;-61
2022/09/10 11:59:17;;;;;;;1.45;0.30;;;19.00;75.90;;;;;;5010174;28;20048;-61
2022/09/10 12:01:49;;;;;;;0.80;0.30;;;19.10;75.90;;;;;;5010614;28;20524;-61
2022/09/10 12:04:47;;;;;;;0.80;0.30;;;19.00;75.80;;;;;;5012379;28;20056;-61
2022/09/10 12:07:21;;;;;;;0.57;0.20;;;19.00;76.30;;;;;;5026907;28;20570;-62
2022/09/10 12:10:05;;;;;;;9.43;3.78;;;19.00;76.40;;;;;;5031510;28;20037;-61
2022/09/10 12:12:57;;;;;;;2.88;1.20;;;19.00;77.60;;;;;;5029824;28;20033;-62
2022/09/10 12:15:33;;;;;;;0.93;0.40;;;19.10;77.30;;;;;;5030414;28;20053;-62
2022/09/10 12:18:21;;;;;;;0.82;0.40;;;19.20;77.20;;;;;;5030184;28;21364;-60
2022/09/10 12:20:53;;;;;;;0.52;0.30;;;19.30;76.00;;;;;;5030771;28;20044;-62
2022/09/10 12:23:27;;;;;;;0.20;0.20;;;19.40;75.30;;;;;;5034971;28;20125;-60
2022/09/10 12:26:06;;;;;;;0.68;0.22;;;19.50;74.00;;;;;;5032784;28;20699;-60
2022/09/10 12:28:44;;;;;;;1.42;0.65;;;19.60;73.10;;;;;;5034511;28;20073;-60
2022/09/10 12:31:12;;;;;;;0.80;0.38;;;19.60;73.30;;;;;;5033404;28;20283;-61
2022/09/10 12:33:41;;;;;;;1.23;0.50;;;19.60;73.30;;;;;;5033275;28;20037;-61
2022/09/10 12:36:07;;;;;;;0.38;0.25;;;19.70;73.00;;;;;;5034727;28;20044;-58
2022/09/10 12:39:10;;;;;;;1.85;0.30;;;19.70;73.00;;;;;;5034714;28;20057;-62
2022/09/10 12:41:36;;;;;;;0.25;0.17;;;19.70;72.70;;;;;;5033209;28;20416;-62
2022/09/10 12:44:23;;;;;;;0.35;0.20;;;19.80;72.80;;;;;;5032156;28;20048;-62
2022/09/10 12:47:15;;;;;;;0.98;0.10;;;19.70;72.20;;;;;;5032192;28;20041;-62
2022/09/10 12:49:48;;;;;;;0.10;0.10;;;19.70;71.10;;;;;;5030676;28;20045;-62
2022/09/10 12:52:25;;;;;;;0.28;0.10;;;19.70;71.40;;;;;;5034044;28;20040;-59
2022/09/10 12:55:03;;;;;;;0.03;0.00;;;19.60;71.30;;;;;;5032521;28;20037;-61
2022/09/10 12:57:32;;;;;;;0.50;0.20;;;19.60;71.70;;;;;;5032545;28;20175;-61
2022/09/10 13:00:24;;;;;;;1.75;0.90;;;19.60;72.10;;;;;;5032606;28;20029;-60
2022/09/10 13:03:04;;;;;;;1.33;0.40;;;19.50;71.80;;;;;;5032394;28;20044;-62
2022/09/10 13:05:52;;;;;;;4.85;0.70;;;19.50;71.10;;;;;;5031423;28;20090;-61
2022/09/10 13:08:26;;;;;;;2.00;0.50;;;19.30;71.00;;;;;;5033810;28;20069;-59
2022/09/10 13:10:58;;;;;;;0.70;0.20;;;19.10;70.70;;;;;;5033160;28;20515;-60
2022/09/10 13:13:38;;;;;;;0.65;0.00;;;18.70;71.20;;;;;;5032400;28;20038;-61